createdAt,value
2018-11-11T00:00:27.234Z,67.27
2018-11-11T00:02:58.566Z,66.37
2018-11-11T00:05:30.474Z,64.77
2018-11-11T00:08:02.375Z,66.57
2018-11-11T00:10:35.673Z,68.13
2018-11-11T00:13:07.749Z,64.40
2018-11-11T00:15:39.353Z,64.70
2018-11-11T00:18:11.029Z,62.00
2018-11-11T00:20:42.246Z,65.47
2018-11-11T00:23:13.097Z,66.77
2018-11-11T00:25:44.832Z,65.20
2018-11-11T00:28:16.983Z,65.70
2018-11-11T00:30:48.023Z,62.97
2018-11-11T00:33:18.865Z,62.77
2018-11-11T00:35:50.184Z,69.67
2018-11-11T00:38:21.214Z,69.03
2018-11-11T00:40:52.196Z,64.13
2018-11-11T00:43:23.652Z,63.40
2018-11-11T00:45:55.355Z,66.30
2018-11-11T00:48:26.433Z,66.80
2018-11-11T00:50:57.000Z,64.07
2018-11-11T00:53:28.214Z,66.67
2018-11-11T00:56:00.217Z,65.80
2018-11-11T00:58:31.314Z,66.83
2018-11-11T01:01:02.592Z,65.70
2018-11-11T01:03:34.853Z,65.83
2018-11-11T01:06:06.532Z,65.37
2018-11-11T01:08:38.109Z,65.80
2018-11-11T01:11:09.530Z,66.30
2018-11-11T01:13:40.934Z,66.27
2018-11-11T01:16:12.607Z,65.00
2018-11-11T01:18:43.974Z,66.87
2018-11-11T01:21:16.271Z,65.00
2018-11-11T01:23:48.275Z,66.87
2018-11-11T01:26:19.890Z,65.47
2018-11-11T01:28:51.325Z,67.27
2018-11-11T01:31:22.715Z,67.40
2018-11-11T01:33:53.935Z,66.57
2018-11-11T01:36:25.696Z,64.00
2018-11-11T01:38:56.772Z,64.70
2018-11-11T01:41:28.333Z,67.93
2018-11-11T01:43:59.556Z,65.33
2018-11-11T01:46:30.586Z,67.60
2018-11-11T01:49:01.537Z,65.77
2018-11-11T01:51:32.761Z,73.10
2018-11-11T01:54:04.394Z,65.77
2018-11-11T01:56:35.001Z,63.47
2018-11-11T01:59:06.358Z,61.80
2018-11-11T02:01:37.913Z,66.47
2018-11-11T02:04:09.655Z,62.83
2018-11-11T02:06:41.080Z,62.70
2018-11-11T02:09:12.770Z,66.80
2018-11-11T02:11:44.141Z,62.20
2018-11-11T02:14:15.366Z,66.10
2018-11-11T02:16:47.950Z,63.00
2018-11-11T02:19:19.136Z,60.70
2018-11-11T02:21:50.878Z,63.03
2018-11-11T02:24:23.140Z,60.87
2018-11-11T02:26:54.076Z,59.07
2018-11-11T02:29:25.488Z,60.97
2018-11-11T02:31:57.036Z,60.80
2018-11-11T02:34:28.993Z,62.27
2018-11-11T02:37:00.245Z,58.27
2018-11-11T02:39:32.956Z,59.63
2018-11-11T02:42:04.290Z,61.77
2018-11-11T02:44:36.260Z,57.43
2018-11-11T02:47:07.861Z,60.70
2018-11-11T02:49:39.474Z,60.40
2018-11-11T02:52:11.751Z,60.00
2018-11-11T02:54:43.567Z,58.97
2018-11-11T02:57:14.671Z,61.40
2018-11-11T02:59:46.478Z,60.77
2018-11-11T03:02:18.664Z,57.87
2018-11-11T03:04:50.252Z,63.30
2018-11-11T03:07:21.882Z,59.77
2018-11-11T03:09:52.983Z,60.20
2018-11-11T03:12:24.057Z,56.70
2018-11-11T03:14:56.380Z,60.90
2018-11-11T03:17:28.047Z,57.07
2018-11-11T03:19:58.763Z,60.57
2018-11-11T03:22:30.235Z,56.73
2018-11-11T03:25:01.592Z,54.40
2018-11-11T03:27:32.577Z,52.30
2018-11-11T03:30:04.372Z,55.30
2018-11-11T03:32:36.045Z,57.80
2018-11-11T03:35:09.538Z,55.17
2018-11-11T03:37:40.803Z,57.50
2018-11-11T03:40:13.809Z,53.87
2018-11-11T03:42:45.155Z,53.60
2018-11-11T03:45:17.241Z,54.37
2018-11-11T03:47:49.109Z,53.03
2018-11-11T03:50:20.186Z,51.70
2018-11-11T03:52:52.435Z,50.13
2018-11-11T03:55:23.729Z,51.50
2018-11-11T03:57:55.216Z,52.27
2018-11-11T04:00:26.694Z,51.43
2018-11-11T04:02:57.577Z,52.50
2018-11-11T04:05:28.769Z,52.53
2018-11-11T04:08:00.193Z,53.87
2018-11-11T04:10:31.294Z,55.93
2018-11-11T04:13:03.787Z,54.43
2018-11-11T04:15:35.631Z,54.70
2018-11-11T04:18:06.766Z,55.87
2018-11-11T04:20:38.272Z,56.70
2018-11-11T04:23:09.516Z,56.30
2018-11-11T04:25:40.671Z,56.07
2018-11-11T04:28:12.272Z,54.60
2018-11-11T04:30:43.965Z,56.07
2018-11-11T04:33:14.529Z,55.80
2018-11-11T04:35:48.208Z,56.57
2018-11-11T04:38:19.599Z,55.70
2018-11-11T04:40:50.928Z,55.37
2018-11-11T04:43:22.393Z,56.20
2018-11-11T04:45:54.108Z,56.40
2018-11-11T04:48:25.086Z,57.93
2018-11-11T04:50:55.737Z,53.67
2018-11-11T04:53:26.230Z,53.60
2018-11-11T04:55:56.891Z,54.97
2018-11-11T04:58:27.590Z,53.00
2018-11-11T05:00:58.889Z,51.90
2018-11-11T05:03:31.193Z,49.30
2018-11-11T05:06:02.039Z,48.27
2018-11-11T05:08:33.381Z,52.17
2018-11-11T05:11:04.195Z,54.47
2018-11-11T05:13:35.050Z,51.63
2018-11-11T05:16:06.212Z,51.30
2018-11-11T05:18:37.713Z,54.60
2018-11-11T05:21:09.392Z,54.67
2018-11-11T05:23:40.296Z,54.80
2018-11-11T05:26:11.857Z,55.17
2018-11-11T05:28:43.118Z,56.00
2018-11-11T05:31:13.928Z,53.67
2018-11-11T05:33:45.598Z,55.97
2018-11-11T05:36:17.114Z,54.30
2018-11-11T05:38:47.910Z,51.33
2018-11-11T05:41:19.407Z,53.70
2018-11-11T05:43:51.040Z,53.00
2018-11-11T05:46:22.206Z,53.50
2018-11-11T05:48:53.349Z,54.70
2018-11-11T05:51:24.344Z,55.90
2018-11-11T05:53:56.365Z,56.23
2018-11-11T05:56:27.739Z,53.03
2018-11-11T05:58:58.855Z,53.70
2018-11-11T06:01:29.948Z,55.70
2018-11-11T06:04:00.731Z,53.03
2018-11-11T06:06:32.069Z,56.60
2018-11-11T06:09:03.467Z,56.97
2018-11-11T06:11:35.341Z,61.20
2018-11-11T06:14:06.536Z,60.10
2018-11-11T06:16:37.843Z,61.20
2018-11-11T06:19:09.992Z,61.87
2018-11-11T06:21:41.076Z,61.40
2018-11-11T06:24:12.511Z,60.37
2018-11-11T06:26:44.198Z,57.10
2018-11-11T06:29:15.356Z,57.80
2018-11-11T06:31:47.321Z,58.00
2018-11-11T06:34:18.030Z,60.87
2018-11-11T06:36:50.075Z,58.57
2018-11-11T06:39:21.315Z,57.87
2018-11-11T06:41:52.200Z,63.10
2018-11-11T06:44:22.832Z,67.30
2018-11-11T06:46:53.772Z,67.20
2018-11-11T06:49:24.553Z,63.03
2018-11-11T06:51:56.240Z,64.47
2018-11-11T06:54:27.763Z,64.17
2018-11-11T06:56:59.279Z,60.50
2018-11-11T06:59:30.683Z,56.90
2018-11-11T07:02:02.089Z,57.70
2018-11-11T07:04:33.515Z,54.00
2018-11-11T07:07:05.266Z,51.97
2018-11-11T07:09:36.749Z,50.90
2018-11-11T07:12:08.149Z,51.27
2018-11-11T07:14:39.356Z,50.30
2018-11-11T07:17:10.540Z,51.20
2018-11-11T07:19:42.790Z,47.67
2018-11-11T07:22:14.427Z,52.17
2018-11-11T07:24:45.399Z,50.53
2018-11-11T07:27:17.133Z,49.57
2018-11-11T07:29:49.204Z,50.20
2018-11-11T07:32:21.857Z,48.50
2018-11-11T07:34:53.147Z,50.40
2018-11-11T07:37:25.246Z,47.27
2018-11-11T07:39:56.634Z,44.20
2018-11-11T07:42:28.480Z,44.50
2018-11-11T07:45:00.630Z,45.63
2018-11-11T07:47:32.554Z,43.67
2018-11-11T07:50:04.947Z,49.93
2018-11-11T07:52:35.865Z,44.83
2018-11-11T07:55:07.654Z,47.77
2018-11-11T07:57:39.190Z,45.00
2018-11-11T08:00:14.686Z,44.10
2018-11-11T08:02:45.887Z,44.23
2018-11-11T08:05:17.836Z,43.27
2018-11-11T08:07:49.450Z,41.63
2018-11-11T08:10:30.813Z,43.30
2018-11-11T08:13:02.449Z,42.60
2018-11-11T08:15:33.390Z,40.70
2018-11-11T08:18:04.983Z,42.40
2018-11-11T08:20:36.569Z,39.93
2018-11-11T08:23:09.212Z,39.07
2018-11-11T08:25:40.137Z,38.03
2018-11-11T08:28:11.724Z,37.97
2018-11-11T08:30:43.457Z,39.87
2018-11-11T08:33:14.900Z,40.20
2018-11-11T08:35:46.596Z,39.10
2018-11-11T08:38:18.053Z,36.43
2018-11-11T08:40:49.421Z,40.00
2018-11-11T08:43:20.424Z,40.87
2018-11-11T08:45:51.756Z,39.67
2018-11-11T08:48:23.751Z,39.70
2018-11-11T08:50:55.633Z,37.37
2018-11-11T08:53:27.411Z,36.10
2018-11-11T08:55:58.800Z,35.93
2018-11-11T08:58:30.235Z,38.20
2018-11-11T09:01:00.957Z,35.67
2018-11-11T09:03:32.954Z,34.57
2018-11-11T09:06:04.541Z,33.77
2018-11-11T09:08:36.369Z,33.37
2018-11-11T09:11:07.494Z,33.13
2018-11-11T09:13:38.748Z,33.40
2018-11-11T09:16:10.298Z,32.90
2018-11-11T09:18:41.945Z,33.13
2018-11-11T09:21:14.062Z,33.20
2018-11-11T09:23:45.457Z,33.27
2018-11-11T09:26:16.048Z,33.20
2018-11-11T09:28:46.857Z,34.10
2018-11-11T09:31:18.496Z,31.67
2018-11-11T09:33:49.914Z,31.33
2018-11-11T09:36:21.216Z,32.97
2018-11-11T09:38:53.182Z,31.07
2018-11-11T09:41:24.014Z,31.90
2018-11-11T09:43:55.350Z,31.97
2018-11-11T09:46:27.032Z,32.47
2018-11-11T09:48:57.633Z,33.50
2018-11-11T09:51:28.806Z,33.97
2018-11-11T09:54:00.198Z,33.10
2018-11-11T09:56:31.011Z,30.87
2018-11-11T09:59:02.727Z,31.80
2018-11-11T10:01:34.648Z,30.00
2018-11-11T10:04:15.866Z,31.20
2018-11-11T10:10:03.692Z,29.47
2018-11-11T10:12:40.471Z,28.83
2018-11-11T10:15:17.767Z,29.80
2018-11-11T10:17:53.676Z,31.40
2018-11-11T10:20:30.313Z,32.20
2018-11-11T10:23:12.617Z,29.40
2018-11-11T10:25:48.170Z,30.87
2018-11-11T10:28:35.204Z,29.70
2018-11-11T10:31:11.238Z,30.30
2018-11-11T10:33:47.904Z,31.30
2018-11-11T10:36:24.833Z,32.70
2018-11-11T10:39:04.928Z,35.43
2018-11-11T10:41:47.789Z,31.80
2018-11-11T10:44:25.145Z,29.93
2018-11-11T10:47:04.142Z,31.47
2018-11-11T10:50:08.882Z,31.43
2018-11-11T10:52:40.053Z,31.30
2018-11-11T10:55:11.724Z,29.97
2018-11-11T10:57:43.046Z,31.67
2018-11-11T11:00:19.551Z,34.77
2018-11-11T11:02:57.917Z,31.20
2018-11-11T11:05:28.800Z,31.23
2018-11-11T11:07:59.819Z,32.07
2018-11-11T11:10:31.465Z,30.20
2018-11-11T11:13:02.569Z,30.20
2018-11-11T11:15:33.761Z,30.30
2018-11-11T11:18:06.309Z,27.17
2018-11-11T11:20:37.682Z,29.93
2018-11-11T11:23:09.947Z,30.77
2018-11-11T11:25:41.854Z,29.77
2018-11-11T11:28:14.048Z,29.37
2018-11-11T11:30:45.526Z,32.13
2018-11-11T11:33:17.390Z,29.67
2018-11-11T11:35:49.437Z,29.63
2018-11-11T11:38:21.282Z,31.07
2018-11-11T11:40:53.078Z,30.27
2018-11-11T11:43:24.529Z,31.10
2018-11-11T11:45:56.186Z,32.20
2018-11-11T11:48:28.406Z,30.37
2018-11-11T11:51:00.718Z,31.00
2018-11-11T11:53:32.300Z,32.40
2018-11-11T11:56:03.581Z,30.23
2018-11-11T11:58:34.697Z,31.80
2018-11-11T12:01:06.390Z,30.53
2018-11-11T12:03:37.513Z,30.20
2018-11-11T12:06:09.008Z,27.53
2018-11-11T12:08:41.491Z,30.90
2018-11-11T12:11:13.096Z,29.10
2018-11-11T12:13:45.049Z,30.13
2018-11-11T12:16:17.192Z,28.13
2018-11-11T12:18:49.380Z,28.47
2018-11-11T12:21:21.792Z,32.33
2018-11-11T12:23:53.936Z,30.93
2018-11-11T12:26:25.634Z,29.07
2018-11-11T12:28:57.626Z,29.80
2018-11-11T12:31:29.620Z,34.07
2018-11-11T12:34:01.834Z,29.13
2018-11-11T12:36:34.397Z,31.50
2018-11-11T12:39:08.218Z,30.40
2018-11-11T12:41:40.230Z,31.03
2018-11-11T12:44:11.528Z,30.27
2018-11-11T12:46:43.369Z,29.37
2018-11-11T12:49:14.973Z,31.17
2018-11-11T12:51:46.947Z,31.07
2018-11-11T12:54:18.936Z,30.27
2018-11-11T12:56:50.624Z,32.10
2018-11-11T12:59:22.180Z,31.10
2018-11-11T13:01:54.356Z,32.53
2018-11-11T13:04:25.753Z,35.30
2018-11-11T13:06:57.359Z,41.20
2018-11-11T13:09:28.714Z,41.17
2018-11-11T13:11:59.613Z,38.07
2018-11-11T13:14:31.836Z,35.47
2018-11-11T13:17:04.149Z,36.20
2018-11-11T13:19:36.803Z,35.50
2018-11-11T13:22:08.519Z,33.73
2018-11-11T13:24:40.787Z,35.70
2018-11-11T13:27:13.053Z,34.20
2018-11-11T13:29:45.193Z,33.77
2018-11-11T13:32:17.786Z,34.80
2018-11-11T13:34:49.752Z,33.20
2018-11-11T13:37:21.114Z,36.93
2018-11-11T13:39:52.673Z,33.90
2018-11-11T13:42:24.483Z,35.30
2018-11-11T13:44:55.910Z,36.00
2018-11-11T13:47:27.054Z,32.40
2018-11-11T13:49:59.735Z,32.73
2018-11-11T13:52:31.514Z,31.00
2018-11-11T13:55:03.406Z,33.30
2018-11-11T13:57:34.553Z,32.00
2018-11-11T14:00:06.646Z,33.80
2018-11-11T14:02:38.988Z,33.67
2018-11-11T14:05:11.130Z,35.63
2018-11-11T14:07:42.630Z,32.70
2018-11-11T14:10:14.809Z,31.40
2018-11-11T14:12:46.553Z,32.47
2018-11-11T14:15:23.018Z,29.33
2018-11-11T14:17:55.669Z,29.43
2018-11-11T14:20:27.524Z,31.07
2018-11-11T14:22:59.504Z,30.87
2018-11-11T14:25:31.688Z,29.37
2018-11-11T14:28:04.379Z,27.80
2018-11-11T14:30:36.124Z,27.90
2018-11-11T14:33:07.298Z,29.43
2018-11-11T14:35:39.046Z,28.40
2018-11-11T14:38:09.653Z,30.50
2018-11-11T14:40:40.177Z,27.83
2018-11-11T14:43:11.333Z,28.43
2018-11-11T14:45:43.847Z,28.60
2018-11-11T14:48:15.632Z,28.40
2018-11-11T14:50:46.787Z,29.03
2018-11-11T14:53:19.053Z,29.40
2018-11-11T14:55:51.695Z,28.50
2018-11-11T14:58:24.017Z,30.73
2018-11-11T15:00:56.553Z,27.67
2018-11-11T15:03:28.266Z,28.60
2018-11-11T15:06:00.728Z,28.50
2018-11-11T15:08:32.297Z,29.40
2018-11-11T15:11:03.923Z,29.73
2018-11-11T15:13:36.420Z,28.53
2018-11-11T15:16:08.620Z,32.40
2018-11-11T15:18:41.258Z,29.70
2018-11-11T15:21:13.293Z,30.50
2018-11-11T15:23:45.328Z,31.67
2018-11-11T15:26:16.981Z,31.30
2018-11-11T15:28:48.332Z,34.13
2018-11-11T15:31:20.212Z,30.23
2018-11-11T15:33:52.781Z,29.63
2018-11-11T15:36:24.648Z,31.97
2018-11-11T15:38:56.200Z,30.43
2018-11-11T15:41:28.033Z,30.60
2018-11-11T15:43:59.754Z,31.47
2018-11-11T15:46:31.834Z,31.10
2018-11-11T15:49:03.806Z,33.10
2018-11-11T15:51:35.848Z,33.80
2018-11-11T15:54:07.395Z,31.80
2018-11-11T15:56:39.778Z,34.03
2018-11-11T15:59:11.194Z,35.90
2018-11-11T16:01:43.169Z,35.40
2018-11-11T16:04:15.810Z,35.90
2018-11-11T16:06:47.093Z,32.30
2018-11-11T16:09:18.798Z,33.20
2018-11-11T16:11:50.872Z,35.07
2018-11-11T16:14:23.013Z,35.67
2018-11-11T16:16:54.544Z,36.97
2018-11-11T16:19:26.552Z,38.00
2018-11-11T16:21:57.893Z,35.83
2018-11-11T16:24:29.002Z,35.27
2018-11-11T16:27:00.849Z,36.30
2018-11-11T16:29:32.187Z,40.07
2018-11-11T16:32:04.228Z,37.83
2018-11-11T16:34:35.579Z,45.03
2018-11-11T16:37:07.565Z,40.40
2018-11-11T16:39:39.641Z,39.43
2018-11-11T16:42:11.524Z,39.40
2018-11-11T16:44:43.336Z,40.60
2018-11-11T16:47:15.331Z,43.20
2018-11-11T16:49:47.434Z,40.80
2018-11-11T16:52:20.874Z,44.57
2018-11-11T16:54:52.261Z,49.27
2018-11-11T16:57:23.035Z,48.67
2018-11-11T16:59:55.555Z,47.60
2018-11-11T17:02:27.996Z,47.43
2018-11-11T17:04:59.640Z,52.97
2018-11-11T17:07:30.824Z,52.47
2018-11-11T17:10:02.345Z,47.80
2018-11-11T17:12:33.414Z,45.80
2018-11-11T17:15:04.816Z,46.40
2018-11-11T17:17:35.998Z,47.47
2018-11-11T17:20:07.849Z,47.80
2018-11-11T17:22:39.215Z,42.37
2018-11-11T17:25:12.326Z,49.37
2018-11-11T17:27:43.909Z,47.93
2018-11-11T17:30:20.632Z,49.90
2018-11-11T17:32:53.553Z,50.23
2018-11-11T17:35:25.633Z,48.57
2018-11-11T17:37:58.145Z,46.37
2018-11-11T17:40:30.177Z,49.77
2018-11-11T17:43:03.178Z,54.13
2018-11-11T17:45:35.079Z,54.27
2018-11-11T17:48:06.460Z,59.03
2018-11-11T17:50:39.086Z,48.37
2018-11-11T17:53:11.459Z,51.17
2018-11-11T17:55:43.935Z,46.20
2018-11-11T17:58:15.842Z,48.47
2018-11-11T18:00:48.355Z,49.00
2018-11-11T18:03:19.758Z,48.20
2018-11-11T18:05:51.591Z,47.23
2018-11-11T18:08:23.253Z,48.77
2018-11-11T18:10:54.809Z,48.37
2018-11-11T18:13:26.453Z,43.50
2018-11-11T18:15:58.812Z,47.27
2018-11-11T18:18:30.068Z,40.73
2018-11-11T18:21:02.440Z,44.33
2018-11-11T18:23:35.484Z,48.13
2018-11-11T18:26:07.028Z,42.83
2018-11-11T18:28:39.463Z,46.63
2018-11-11T18:31:11.415Z,51.67
2018-11-11T18:33:44.369Z,41.90
2018-11-11T18:36:16.126Z,42.07
2018-11-11T18:38:48.355Z,41.90
2018-11-11T18:41:20.233Z,43.03
2018-11-11T18:43:54.304Z,52.73
2018-11-11T18:46:27.075Z,56.00
2018-11-11T18:48:59.463Z,63.60
2018-11-11T18:51:31.507Z,72.03
2018-11-11T18:54:03.164Z,90.10
2018-11-11T18:56:36.133Z,56.23
2018-11-11T18:59:08.334Z,49.13
2018-11-11T19:01:39.967Z,53.63
2018-11-11T19:04:12.553Z,49.27
2018-11-11T19:06:44.259Z,44.57
2018-11-11T19:09:16.861Z,46.23
2018-11-11T19:11:49.394Z,45.67
2018-11-11T19:14:21.923Z,42.70
2018-11-11T19:16:54.112Z,43.67
2018-11-11T19:19:25.842Z,46.20
2018-11-11T19:21:57.925Z,42.93
2018-11-11T19:24:29.370Z,42.23
2018-11-11T19:27:01.445Z,48.43
2018-11-11T19:29:33.452Z,44.90
2018-11-11T19:32:06.488Z,44.50
2018-11-11T19:38:06.116Z,45.60
2018-11-11T19:40:45.835Z,43.20
2018-11-11T19:43:17.896Z,43.97
2018-11-11T19:45:50.453Z,44.70
2018-11-11T19:48:23.211Z,43.90
2018-11-11T19:50:55.843Z,41.80
2018-11-11T19:53:27.353Z,41.57
2018-11-11T19:55:59.485Z,40.67
2018-11-11T19:58:31.901Z,40.90
2018-11-11T20:01:04.817Z,45.07
2018-11-11T20:03:37.166Z,45.60
2018-11-11T20:06:09.976Z,44.67
2018-11-11T20:08:41.514Z,44.40
2018-11-11T20:11:13.697Z,44.87
2018-11-11T20:13:45.712Z,46.63
2018-11-11T20:16:17.763Z,49.33
2018-11-11T20:18:49.239Z,44.37
2018-11-11T20:21:21.710Z,44.80
2018-11-11T20:23:53.614Z,49.77
2018-11-11T20:26:25.350Z,51.77
2018-11-11T20:28:57.292Z,52.97
2018-11-11T20:31:29.248Z,50.60
2018-11-11T20:34:01.757Z,48.30
2018-11-11T20:36:33.965Z,46.90
2018-11-11T20:39:09.206Z,50.37
2018-11-11T20:41:41.241Z,50.27
2018-11-11T20:44:13.584Z,50.47
2018-11-11T20:46:45.863Z,53.50
2018-11-11T20:49:18.317Z,51.60
2018-11-11T20:51:51.160Z,54.83
2018-11-11T20:54:23.053Z,52.17
2018-11-11T20:56:55.176Z,50.70
2018-11-11T20:59:27.486Z,47.10
2018-11-11T21:01:59.485Z,51.70
2018-11-11T21:04:32.486Z,50.80
2018-11-11T21:07:04.700Z,51.87
2018-11-11T21:09:36.795Z,50.13
2018-11-11T21:12:09.110Z,48.03
2018-11-11T21:14:40.515Z,51.53
2018-11-11T21:17:12.056Z,53.90
2018-11-11T21:19:43.455Z,53.87
2018-11-11T21:22:17.532Z,51.30
2018-11-11T21:24:49.082Z,53.73
2018-11-11T21:27:21.422Z,57.20
2018-11-11T21:29:53.673Z,53.57
2018-11-11T21:32:26.596Z,52.47
2018-11-11T21:34:58.604Z,52.47
2018-11-11T21:37:29.645Z,49.90
2018-11-11T21:40:01.591Z,51.40
2018-11-11T21:42:32.704Z,50.63
2018-11-11T21:45:04.874Z,50.50
2018-11-11T21:47:36.555Z,52.93
2018-11-11T21:50:10.370Z,48.30
2018-11-11T21:52:42.573Z,51.10
2018-11-11T21:55:13.900Z,59.00
2018-11-11T21:57:45.520Z,62.30
2018-11-11T22:00:18.073Z,57.00
2018-11-11T22:02:49.452Z,58.40
2018-11-11T22:05:20.712Z,55.30
2018-11-11T22:07:52.320Z,48.77
2018-11-11T22:10:24.648Z,49.70
2018-11-11T22:12:56.051Z,54.93
2018-11-11T22:15:28.999Z,54.00
2018-11-11T22:18:01.115Z,53.77
2018-11-11T22:20:33.916Z,52.93
2018-11-11T22:23:06.606Z,58.50
2018-11-11T22:25:38.602Z,62.17
2018-11-11T22:28:10.458Z,55.87
2018-11-11T22:30:43.070Z,51.87
2018-11-11T22:33:14.673Z,54.80
2018-11-11T22:35:47.224Z,53.20
2018-11-11T22:38:19.352Z,48.47
2018-11-11T22:40:51.112Z,45.63
2018-11-11T22:43:22.845Z,51.90
2018-11-11T22:45:54.469Z,51.20
2018-11-11T22:48:25.896Z,50.63
2018-11-11T22:50:58.018Z,51.17
2018-11-11T22:53:30.973Z,54.73
2018-11-11T22:56:02.585Z,54.17
2018-11-11T22:58:34.153Z,54.23
2018-11-11T23:01:12.220Z,44.80
2018-11-11T23:03:43.679Z,48.07
2018-11-11T23:06:15.092Z,46.67
2018-11-11T23:08:46.134Z,50.00
2018-11-11T23:11:18.193Z,47.23
2018-11-11T23:13:49.474Z,49.07
2018-11-11T23:16:20.910Z,53.07
2018-11-11T23:18:52.297Z,66.23
2018-11-11T23:21:23.935Z,58.90
2018-11-11T23:23:55.267Z,54.00
2018-11-11T23:26:26.719Z,55.57
2018-11-11T23:28:57.706Z,56.77
2018-11-11T23:31:29.315Z,50.83
2018-11-11T23:34:01.605Z,49.53
2018-11-11T23:36:33.962Z,48.67
2018-11-11T23:39:05.399Z,51.33
2018-11-11T23:41:37.319Z,48.33
2018-11-11T23:44:11.367Z,50.63
2018-11-11T23:46:43.081Z,54.80
2018-11-11T23:49:14.085Z,51.27
2018-11-11T23:51:45.912Z,54.57
2018-11-11T23:54:17.539Z,51.20
2018-11-11T23:56:48.765Z,52.63
2018-11-11T23:59:19.634Z,55.80
